Terminal Aerodrome Forecast
Issued by NWS Jacksonville, FL

Home | Current Version | Previous Version | Text Only | Print | Product List | Glossary On
Versions: 1 2 3 4 5 6 7 8 9 10 11 12 13 14 15
896
FTUS42 KJAX 261743
TAFGNV
TAF
KGNV 261743Z 2618/2718 07010G18KT P6SM VCSH SCT035 BKN060
     FM270000 07008KT P6SM SCT030 SCT060
     FM270400 05003KT P6SM FEW025 SCT060
     FM271400 07009KT P6SM BKN035=

USA.gov is the U.S. government's official web portal to all federal, state and local government web resources and services.